Time;durP1;ratioP1;P1;durP2;ratioP2;P2;SDS_P1;SDS_P2;PMS_P1;PMS_P2;Temp;Humidity;BMP_temperature;BMP_pressure;BME280_temperature;BME280_humidity;BME280_pressure;Samples;Min_cycle;Max_cycle;Signal;HPM_P1;HPM_P2
2022/07/16 00:02:16;;;;;;;1999.90;999.90;;;13.80;69.80;;;;;;5103194;28;20034;-85
2022/07/16 00:04:41;;;;;;;1999.90;999.90;;;13.70;69.50;;;;;;5083841;28;20031;-86
2022/07/16 00:07:07;;;;;;;1999.90;999.90;;;13.80;70.40;;;;;;5074304;28;20012;-85
2022/07/16 00:09:33;;;;;;;1999.90;999.90;;;13.70;72.80;;;;;;5091058;28;20613;-85
2022/07/16 00:11:59;;;;;;;1999.90;999.90;;;13.50;74.00;;;;;;5076331;28;20023;-85
2022/07/16 00:14:24;;;;;;;1999.90;999.90;;;13.50;74.10;;;;;;5094799;28;20415;-85
2022/07/16 00:16:50;;;;;;;1999.90;999.90;;;13.50;73.60;;;;;;5058366;28;20040;-86
2022/07/16 00:19:16;;;;;;;1999.90;999.90;;;13.40;71.60;;;;;;5077994;28;20126;-85
2022/07/16 00:21:43;;;;;;;1999.90;999.90;;;13.40;71.20;;;;;;5091299;28;20111;-85
2022/07/16 00:24:09;;;;;;;1999.90;999.90;;;13.40;70.00;;;;;;5074798;28;20019;-85
2022/07/16 00:26:35;;;;;;;1999.90;999.90;;;13.40;71.70;;;;;;5088306;28;20039;-85
2022/07/16 00:29:01;;;;;;;1999.90;999.90;;;13.20;74.60;;;;;;5105462;28;20028;-86
2022/07/16 00:31:27;;;;;;;1999.90;999.90;;;13.10;76.20;;;;;;5098682;28;20486;-85
2022/07/16 00:33:52;;;;;;;1999.90;999.90;;;13.10;76.50;;;;;;5103658;28;20479;-85
2022/07/16 00:36:18;;;;;;;1999.90;999.90;;;13.00;76.70;;;;;;5083405;28;20086;-85
2022/07/16 00:38:44;;;;;;;1999.90;999.90;;;13.10;77.30;;;;;;5082396;28;20085;-85
2022/07/16 00:41:18;;;;;;;1999.90;999.90;;;13.10;74.80;;;;;;5098482;28;20042;-86
2022/07/16 00:43:47;;;;;;;1999.90;999.90;;;13.10;74.30;;;;;;5069905;28;20682;-85
2022/07/16 00:46:13;;;;;;;1999.90;999.90;;;13.20;73.10;;;;;;5080674;28;20090;-85
2022/07/16 00:48:39;;;;;;;1999.90;999.90;;;13.20;72.50;;;;;;5079266;28;20024;-85
2022/07/16 00:51:06;;;;;;;1999.90;999.90;;;13.20;71.60;;;;;;5077306;28;20544;-90
2022/07/16 00:53:33;;;;;;;1999.90;999.90;;;13.20;71.30;;;;;;5097265;28;20265;-85
2022/07/16 00:55:59;;;;;;;1999.90;999.90;;;13.30;70.90;;;;;;5091901;28;20020;-85
2022/07/16 00:58:25;;;;;;;1999.90;999.90;;;13.30;70.40;;;;;;5096111;28;20662;-85
2022/07/16 01:00:50;;;;;;;1999.90;999.90;;;13.30;70.70;;;;;;5106004;28;20119;-85
2022/07/16 01:03:16;;;;;;;1999.90;999.90;;;13.40;70.00;;;;;;5079098;28;20479;-86
2022/07/16 01:05:42;;;;;;;1999.90;999.90;;;13.50;68.90;;;;;;5086318;28;20482;-86
2022/07/16 01:08:08;;;;;;;1999.90;999.90;;;13.60;68.30;;;;;;5095080;28;20472;-85
2022/07/16 01:10:34;;;;;;;1999.90;999.90;;;13.70;67.50;;;;;;5084307;28;20559;-85
2022/07/16 01:13:00;;;;;;;1999.90;999.90;;;13.70;67.10;;;;;;5080306;28;20059;-85
2022/07/16 01:15:26;;;;;;;1999.90;999.90;;;13.70;67.90;;;;;;5092899;28;20491;-92
2022/07/16 01:17:52;;;;;;;1999.90;999.90;;;13.50;70.10;;;;;;5097131;28;20080;-85
2022/07/16 01:20:18;;;;;;;1999.90;999.90;;;13.50;69.90;;;;;;5091001;28;20032;-86
2022/07/16 01:22:46;;;;;;;1999.90;999.90;;;13.40;68.90;;;;;;5078164;28;20051;-85
2022/07/16 01:25:12;;;;;;;1999.90;999.90;;;13.40;68.60;;;;;;5095092;28;20096;-85
2022/07/16 01:27:38;;;;;;;1999.90;999.90;;;13.50;68.40;;;;;;5101640;28;20550;-85
2022/07/16 01:30:08;;;;;;;1999.90;999.90;;;13.50;68.40;;;;;;5085953;28;20395;-86
2022/07/16 01:32:35;;;;;;;1999.90;999.90;;;13.50;69.20;;;;;;5106276;28;20040;-86
2022/07/16 01:35:02;;;;;;;1999.90;999.90;;;13.40;68.80;;;;;;5084583;28;20036;-85
2022/07/16 01:37:28;;;;;;;1999.90;999.90;;;13.50;68.70;;;;;;5085078;28;20491;-91
2022/07/16 01:39:53;;;;;;;1999.90;999.90;;;13.50;68.30;;;;;;5065578;28;20066;-86
2022/07/16 01:42:19;;;;;;;1999.90;999.90;;;13.50;68.20;;;;;;5063221;28;20151;-85
2022/07/16 01:44:45;;;;;;;1999.90;999.90;;;13.40;68.90;;;;;;5064421;28;20402;-85
2022/07/16 01:47:10;;;;;;;1999.90;999.90;;;13.40;69.30;;;;;;5061788;28;20046;-86
2022/07/16 01:49:38;;;;;;;1999.90;999.90;;;13.30;70.10;;;;;;5076239;28;20551;-87
2022/07/16 01:52:08;;;;;;;1999.90;999.90;;;13.30;70.30;;;;;;5077640;28;20115;-85
2022/07/16 01:54:35;;;;;;;1999.90;999.90;;;13.20;70.30;;;;;;5073824;28;20031;-86
2022/07/16 01:57:00;;;;;;;1999.90;999.90;;;13.20;70.50;;;;;;5073451;28;20137;-86
2022/07/16 01:59:26;;;;;;;1999.90;999.90;;;13.10;74.90;;;;;;5090504;28;20032;-85
2022/07/16 02:01:52;;;;;;;1999.90;999.90;;;12.90;75.60;;;;;;5098937;28;20036;-87
2022/07/16 02:04:18;;;;;;;1999.90;999.90;;;12.70;77.70;;;;;;5072126;28;20032;-86
2022/07/16 02:06:43;;;;;;;1999.90;999.90;;;12.70;76.80;;;;;;5085619;28;20046;-86
2022/07/16 02:09:09;;;;;;;1999.90;999.90;;;12.60;76.80;;;;;;5102045;28;20035;-86
2022/07/16 02:11:34;;;;;;;1999.90;999.90;;;12.60;75.00;;;;;;5064401;28;20044;-86
2022/07/16 02:14:00;;;;;;;1999.90;999.90;;;12.50;75.60;;;;;;5048656;28;20044;-86
2022/07/16 02:16:26;;;;;;;1999.90;999.90;;;12.50;75.80;;;;;;5060651;28;20035;-86
2022/07/16 02:18:52;;;;;;;1999.90;999.90;;;12.50;78.10;;;;;;5074172;28;20517;-85
2022/07/16 02:21:17;;;;;;;1999.90;999.90;;;12.40;77.00;;;;;;5092596;28;20033;-85
2022/07/16 02:23:43;;;;;;;1999.90;999.90;;;12.40;77.40;;;;;;5071559;28;20023;-86
2022/07/16 02:26:09;;;;;;;1999.90;999.90;;;12.30;79.00;;;;;;5061951;28;20031;-87
2022/07/16 02:28:34;;;;;;;1999.90;999.90;;;12.30;79.70;;;;;;5084037;28;20025;-86
2022/07/16 02:31:00;;;;;;;1999.90;999.90;;;12.20;80.60;;;;;;5050522;28;20482;-85
2022/07/16 02:33:25;;;;;;;1999.90;999.90;;;12.20;78.60;;;;;;5102279;28;20032;-85
2022/07/16 02:35:51;;;;;;;1999.90;999.90;;;12.20;78.40;;;;;;5068479;28;20039;-85
2022/07/16 02:38:17;;;;;;;1999.90;999.90;;;12.20;77.70;;;;;;5081519;28;20059;-88
2022/07/16 02:40:43;;;;;;;1999.90;999.90;;;12.40;76.70;;;;;;5093574;28;20102;-85
2022/07/16 02:43:11;;;;;;;1999.90;999.90;;;12.50;76.40;;;;;;5094616;28;20419;-83
2022/07/16 02:45:39;;;;;;;1999.90;999.90;;;12.30;79.00;;;;;;5077264;28;20128;-86
2022/07/16 02:48:05;;;;;;;1999.90;999.90;;;12.20;79.50;;;;;;5095089;28;20103;-87
2022/07/16 02:50:32;;;;;;;1999.90;999.90;;;12.20;78.70;;;;;;5088677;28;20566;-85
2022/07/16 02:52:58;;;;;;;1999.90;999.90;;;12.30;77.10;;;;;;5076533;28;20495;-86
2022/07/16 02:55:23;;;;;;;1999.90;999.90;;;12.50;75.90;;;;;;5058728;28;20035;-86
2022/07/16 02:57:49;;;;;;;1999.90;999.90;;;12.60;75.40;;;;;;5105081;28;20103;-86
2022/07/16 03:00:16;;;;;;;1999.90;999.90;;;12.60;75.00;;;;;;5103429;28;20586;-92
2022/07/16 03:02:43;;;;;;;1999.90;999.90;;;12.70;74.80;;;;;;5076358;28;20027;-84
2022/07/16 03:05:09;;;;;;;1999.90;999.90;;;12.60;75.40;;;;;;5101310;28;20028;-85
2022/07/16 03:07:36;;;;;;;1999.90;999.90;;;12.70;75.10;;;;;;5079470;28;20039;-85
2022/07/16 03:10:02;;;;;;;1999.90;999.90;;;12.70;75.00;;;;;;5081636;28;20070;-84
2022/07/16 03:12:28;;;;;;;1999.90;999.90;;;12.60;75.50;;;;;;5056633;28;20025;-86
2022/07/16 03:14:53;;;;;;;1999.90;999.90;;;12.60;75.70;;;;;;5075497;28;20648;-86
2022/07/16 03:17:19;;;;;;;1999.90;999.90;;;12.60;75.70;;;;;;5076377;28;20023;-85
2022/07/16 03:19:44;;;;;;;1999.90;999.90;;;12.60;75.70;;;;;;5041864;28;20375;-85
2022/07/16 03:22:10;;;;;;;1999.90;999.90;;;12.50;76.20;;;;;;5091577;28;20394;-85
2022/07/16 03:24:36;;;;;;;1999.90;999.90;;;12.50;76.20;;;;;;5066522;28;20028;-86
2022/07/16 03:27:02;;;;;;;1999.90;999.90;;;12.50;76.30;;;;;;5096780;28;20097;-85
2022/07/16 03:29:27;;;;;;;1999.90;999.90;;;12.50;76.30;;;;;;5087320;28;20605;-84
2022/07/16 03:31:53;;;;;;;1999.90;999.90;;;12.50;76.40;;;;;;5084262;28;20038;-85
2022/07/16 03:34:19;;;;;;;1999.90;999.90;;;12.40;76.90;;;;;;5081172;28;20031;-85
2022/07/16 03:36:44;;;;;;;1999.90;999.90;;;12.30;76.20;;;;;;5100114;28;20031;-86
2022/07/16 03:39:10;;;;;;;1999.90;999.90;;;12.30;76.40;;;;;;5077071;28;20081;-85
2022/07/16 03:41:38;;;;;;;1999.90;999.90;;;12.20;77.30;;;;;;5082988;28;20047;-85
2022/07/16 03:44:06;;;;;;;1999.90;999.90;;;12.20;78.10;;;;;;5092806;28;20024;-85
2022/07/16 03:46:31;;;;;;;1999.90;999.90;;;12.10;78.70;;;;;;5095271;28;20035;-91
2022/07/16 03:48:58;;;;;;;1999.90;999.90;;;12.00;79.40;;;;;;5061115;28;20028;-86
2022/07/16 03:51:24;;;;;;;1999.90;999.90;;;12.00;78.80;;;;;;5073033;28;20032;-86
2022/07/16 03:53:50;;;;;;;1999.90;999.90;;;12.00;78.80;;;;;;5074902;28;20019;-85
2022/07/16 03:56:16;;;;;;;1999.90;999.90;;;12.00;79.50;;;;;;5100584;28;20051;-85
2022/07/16 03:58:42;;;;;;;1999.90;999.90;;;12.00;80.00;;;;;;5082563;28;20565;-89
2022/07/16 04:01:09;;;;;;;1999.90;999.90;;;12.00;79.80;;;;;;5100748;28;20093;-86
2022/07/16 04:03:36;;;;;;;1999.90;999.90;;;12.00;79.90;;;;;;5099117;28;20107;-85
2022/07/16 04:06:02;;;;;;;1999.90;999.90;;;12.00;79.90;;;;;;5097511;28;20020;-85
2022/07/16 04:08:28;;;;;;;1999.90;999.90;;;12.00;81.10;;;;;;5097222;28;20491;-85
2022/07/16 04:10:53;;;;;;;1999.90;999.90;;;12.00;82.40;;;;;;5062624;28;20039;-84
2022/07/16 04:13:19;;;;;;;1999.90;999.90;;;12.10;83.40;;;;;;5076546;28;20041;-86
2022/07/16 04:15:45;;;;;;;1999.90;999.90;;;11.90;84.10;;;;;;5072240;28;20035;-86
2022/07/16 04:18:11;;;;;;;1999.90;999.90;;;12.00;84.70;;;;;;5067957;28;20020;-86
2022/07/16 04:20:37;;;;;;;1999.90;999.90;;;12.10;84.40;;;;;;5075432;28;20060;-85
2022/07/16 04:23:02;;;;;;;1999.90;999.90;;;12.10;83.40;;;;;;5064599;28;20060;-87
2022/07/16 04:25:28;;;;;;;1999.90;999.90;;;12.10;84.10;;;;;;5073057;28;20032;-85
2022/07/16 04:27:55;;;;;;;1999.90;999.90;;;12.20;82.50;;;;;;5086099;28;20499;-85
2022/07/16 04:30:21;;;;;;;1999.90;999.90;;;12.20;80.10;;;;;;5067022;28;20086;-85
2022/07/16 04:32:46;;;;;;;1999.90;999.90;;;12.40;79.20;;;;;;5079597;28;20024;-85
2022/07/16 04:35:13;;;;;;;1999.90;999.90;;;12.40;79.90;;;;;;5056361;28;20032;-86
2022/07/16 04:37:39;;;;;;;1999.90;999.90;;;12.50;80.90;;;;;;5081070;28;20023;-85
2022/07/16 04:40:08;;;;;;;1999.90;999.90;;;12.60;80.70;;;;;;5063843;28;20479;-85
2022/07/16 04:42:36;;;;;;;1999.90;999.90;;;12.70;81.60;;;;;;5058846;28;20040;-85
2022/07/16 04:45:02;;;;;;;1999.90;999.90;;;12.90;79.70;;;;;;5071154;28;20041;-87
2022/07/16 04:47:28;;;;;;;1999.90;999.90;;;13.10;77.70;;;;;;5075623;28;20032;-86
2022/07/16 04:49:53;;;;;;;1999.90;999.90;;;13.20;78.70;;;;;;5078935;28;20457;-85
2022/07/16 04:52:19;;;;;;;1999.90;999.90;;;13.20;78.80;;;;;;5073793;28;20787;-85
2022/07/16 04:54:44;;;;;;;1999.90;999.90;;;13.20;79.10;;;;;;5067863;28;20055;-85
2022/07/16 04:57:10;;;;;;;1999.90;999.90;;;13.30;79.80;;;;;;5065073;28;20033;-86
2022/07/16 04:59:36;;;;;;;1999.90;999.90;;;13.50;79.80;;;;;;5085800;28;20539;-87
2022/07/16 05:04:46;;;;;;;1999.90;999.90;;;13.70;78.30;;;;;;5076435;28;20054;-85
2022/07/16 05:07:12;;;;;;;1999.90;999.90;;;13.70;78.50;;;;;;5078364;28;20032;-85
2022/07/16 05:09:37;;;;;;;1999.90;999.90;;;13.80;76.70;;;;;;5072341;28;20790;-86
2022/07/16 05:12:03;;;;;;;1999.90;999.90;;;13.90;75.60;;;;;;5063572;28;20039;-85
2022/07/16 05:14:29;;;;;;;1999.90;999.90;;;14.10;77.20;;;;;;5084522;28;20036;-85
2022/07/16 05:16:56;;;;;;;1999.90;999.90;;;14.20;78.30;;;;;;5083272;28;20029;-86
2022/07/16 05:19:22;;;;;;;1999.90;999.90;;;14.20;76.20;;;;;;5080888;28;20035;-89
2022/07/16 05:21:48;;;;;;;1999.90;999.90;;;14.30;75.70;;;;;;5071968;28;20039;-86
2022/07/16 05:24:14;;;;;;;1999.90;999.90;;;14.30;72.20;;;;;;5072313;28;20028;-86
2022/07/16 05:26:39;;;;;;;1999.90;999.90;;;14.50;73.30;;;;;;5054397;28;20028;-86
2022/07/16 05:29:05;;;;;;;1999.90;999.90;;;14.50;73.40;;;;;;5068762;28;20044;-85
2022/07/16 05:31:31;;;;;;;1999.90;999.90;;;14.60;74.20;;;;;;5071498;28;20048;-89
2022/07/16 05:33:56;;;;;;;1999.90;999.90;;;14.80;72.00;;;;;;5060982;28;20040;-86
2022/07/16 05:36:22;;;;;;;1999.90;999.90;;;14.90;70.70;;;;;;5058849;28;20154;-85
2022/07/16 05:38:48;;;;;;;1999.90;999.90;;;15.00;71.70;;;;;;5075574;28;20491;-85
2022/07/16 05:41:13;;;;;;;1999.90;999.90;;;15.00;71.80;;;;;;5069488;28;20121;-83
2022/07/16 05:43:39;;;;;;;1999.90;999.90;;;15.10;70.50;;;;;;5072550;28;20040;-82
2022/07/16 05:46:05;;;;;;;1999.90;999.90;;;15.20;70.40;;;;;;5071784;28;20539;-83
2022/07/16 05:48:30;;;;;;;1999.90;999.90;;;15.30;70.40;;;;;;5074681;28;20507;-82
2022/07/16 05:50:56;;;;;;;1999.90;999.90;;;15.30;69.60;;;;;;5068733;28;20103;-77
2022/07/16 05:53:22;;;;;;;1999.90;999.90;;;15.50;66.90;;;;;;5067056;28;20158;-78
2022/07/16 05:55:47;;;;;;;1999.90;999.90;;;15.50;63.90;;;;;;5065799;28;20407;-79
2022/07/16 05:58:13;;;;;;;1999.90;999.90;;;15.60;64.80;;;;;;5067980;28;20032;-78
2022/07/16 06:00:39;;;;;;;1999.90;999.90;;;15.50;69.20;;;;;;5078653;28;20437;-84
2022/07/16 06:03:05;;;;;;;1999.90;999.90;;;15.50;67.40;;;;;;5074667;28;20032;-85
2022/07/16 06:05:30;;;;;;;1999.90;999.90;;;15.70;67.20;;;;;;5077980;28;20029;-84
2022/07/16 06:07:56;;;;;;;1999.90;999.90;;;15.80;64.50;;;;;;5074002;28;20115;-86
2022/07/16 06:10:22;;;;;;;1999.90;999.90;;;15.90;65.70;;;;;;5076194;28;20084;-85
2022/07/16 06:12:48;;;;;;;1999.90;999.90;;;16.00;65.10;;;;;;5076233;28;20487;-84
2022/07/16 06:15:13;;;;;;;1999.90;999.90;;;16.10;66.40;;;;;;5092341;28;20055;-84
2022/07/16 06:17:40;;;;;;;1999.90;999.90;;;16.10;63.80;;;;;;5070324;28;20101;-84
2022/07/16 06:20:07;;;;;;;1999.90;999.90;;;16.00;63.40;;;;;;5094060;28;20024;-85
2022/07/16 06:22:33;;;;;;;1999.90;999.90;;;16.00;64.00;;;;;;5054039;28;20219;-84
2022/07/16 06:24:59;;;;;;;1999.90;999.90;;;16.10;66.70;;;;;;5092474;28;20030;-86
2022/07/16 06:27:26;;;;;;;1999.90;999.90;;;16.10;61.40;;;;;;5098012;28;20356;-87
2022/07/16 06:29:52;;;;;;;1999.90;999.90;;;16.20;61.60;;;;;;5096788;28;20483;-88
2022/07/16 06:32:18;;;;;;;1999.90;999.90;;;16.40;63.00;;;;;;5099022;28;20039;-84
2022/07/16 06:34:43;;;;;;;1999.90;999.90;;;16.40;61.00;;;;;;5101666;28;20518;-85
2022/07/16 06:37:09;;;;;;;1999.90;999.90;;;16.60;61.00;;;;;;5059024;28;20486;-85
2022/07/16 06:39:35;;;;;;;1999.90;999.90;;;16.50;62.30;;;;;;5096381;28;20025;-85
2022/07/16 06:42:00;;;;;;;1999.90;999.90;;;16.60;63.20;;;;;;5089983;28;20506;-88
2022/07/16 06:44:26;;;;;;;1999.90;999.90;;;16.60;59.70;;;;;;5060218;28;20496;-86
2022/07/16 06:46:53;;;;;;;1999.90;999.90;;;16.60;61.30;;;;;;5071504;28;20016;-90
2022/07/16 06:49:19;;;;;;;1999.90;999.90;;;16.90;58.60;;;;;;5088279;28;20064;-89
2022/07/16 06:51:44;;;;;;;1999.90;999.90;;;16.90;59.40;;;;;;5088313;28;20560;-89
2022/07/16 06:54:10;;;;;;;1999.90;999.90;;;17.10;64.00;;;;;;5069968;28;20478;-88
2022/07/16 06:56:36;;;;;;;1999.90;999.90;;;17.20;59.00;;;;;;5075285;28;20057;-85
2022/07/16 06:59:02;;;;;;;1999.90;999.90;;;17.30;58.80;;;;;;5079214;28;20028;-87
2022/07/16 07:01:27;;;;;;;1999.90;999.90;;;17.40;60.90;;;;;;5099148;28;20023;-85
2022/07/16 07:03:53;;;;;;;1999.90;999.90;;;17.50;57.40;;;;;;5089628;28;20474;-89
2022/07/16 07:06:18;;;;;;;1999.90;999.90;;;17.70;56.60;;;;;;5077552;28;20470;-87
2022/07/16 07:08:44;;;;;;;1999.90;999.90;;;17.70;55.00;;;;;;5096541;28;20032;-90
2022/07/16 07:11:10;;;;;;;1999.90;999.90;;;17.80;57.30;;;;;;5092961;28;20109;-79
2022/07/16 07:13:37;;;;;;;1999.90;999.90;;;18.00;54.80;;;;;;5092207;28;20494;-83
2022/07/16 07:16:03;;;;;;;1999.90;999.90;;;17.80;53.20;;;;;;5076773;28;20020;-83
2022/07/16 07:18:29;;;;;;;1999.90;999.90;;;18.00;53.40;;;;;;5069521;28;20062;-83
2022/07/16 07:20:55;;;;;;;1999.90;999.90;;;18.10;54.00;;;;;;5086025;28;20479;-86
2022/07/16 07:23:21;;;;;;;1999.90;999.90;;;18.30;50.80;;;;;;5081561;28;20070;-82
2022/07/16 07:25:47;;;;;;;1999.90;999.90;;;18.40;54.40;;;;;;5078060;28;20436;-82
2022/07/16 07:28:12;;;;;;;1999.90;999.90;;;18.50;56.60;;;;;;5085968;28;20567;-82
2022/07/16 07:30:38;;;;;;;1999.90;999.90;;;18.60;54.20;;;;;;5076507;28;20036;-82
2022/07/16 07:33:04;;;;;;;1999.90;999.90;;;18.80;55.20;;;;;;5089981;28;20479;-82
2022/07/16 07:35:29;;;;;;;1999.90;999.90;;;18.90;53.50;;;;;;5079817;28;20590;-82
2022/07/16 07:37:55;;;;;;;1999.90;999.90;;;18.90;53.10;;;;;;5095823;28;20035;-82
2022/07/16 07:40:21;;;;;;;1999.90;999.90;;;19.00;49.50;;;;;;5072811;28;20023;-84
2022/07/16 07:42:46;;;;;;;1999.90;999.90;;;19.00;50.70;;;;;;5098078;28;20040;-83
2022/07/16 07:45:12;;;;;;;1999.90;999.90;;;19.10;50.40;;;;;;5093921;28;20446;-83
2022/07/16 07:47:38;;;;;;;1999.90;999.90;;;19.20;51.00;;;;;;5095265;28;20740;-84
2022/07/16 07:50:05;;;;;;;1999.90;999.90;;;19.30;51.30;;;;;;5069478;28;20484;-83
2022/07/16 07:52:31;;;;;;;1999.90;999.90;;;19.50;48.70;;;;;;5086716;28;20055;-85
2022/07/16 07:54:57;;;;;;;1999.90;999.90;;;19.60;48.70;;;;;;5091918;28;20060;-82
2022/07/16 07:57:22;;;;;;;1999.90;999.90;;;19.60;46.90;;;;;;5101003;28;20062;-84
2022/07/16 07:59:48;;;;;;;1999.90;999.90;;;19.70;45.10;;;;;;5109078;28;20024;-82
2022/07/16 08:02:14;;;;;;;1999.90;999.90;;;19.50;46.80;;;;;;5085718;28;20052;-83
2022/07/16 08:04:39;;;;;;;1999.90;999.90;;;19.80;46.70;;;;;;5100317;28;20439;-83
2022/07/16 08:07:05;;;;;;;1999.90;999.90;;;20.00;47.30;;;;;;5102194;28;20490;-86
2022/07/16 08:09:31;;;;;;;1999.90;999.90;;;20.10;46.20;;;;;;5081658;28;20399;-82
2022/07/16 08:11:57;;;;;;;1999.90;999.90;;;20.20;46.60;;;;;;5071769;28;20024;-82
2022/07/16 08:14:23;;;;;;;1999.90;999.90;;;20.20;45.20;;;;;;5095065;28;20503;-82
2022/07/16 08:16:48;;;;;;;1999.90;999.90;;;20.30;41.10;;;;;;5074357;28;20058;-83
2022/07/16 08:19:14;;;;;;;1999.90;999.90;;;20.40;42.70;;;;;;5084453;28;20032;-84
2022/07/16 08:21:40;;;;;;;1999.90;999.90;;;20.40;43.40;;;;;;5073603;28;20040;-83
2022/07/16 08:26:49;;;;;;;1999.90;999.90;;;20.60;44.80;;;;;;5097564;28;20070;-87
2022/07/16 08:29:15;;;;;;;1999.90;999.90;;;20.70;41.90;;;;;;5078853;28;20051;-88
2022/07/16 08:31:41;;;;;;;1999.90;999.90;;;20.80;43.20;;;;;;5080934;28;20036;-88
2022/07/16 08:34:06;;;;;;;1999.90;999.90;;;20.80;42.30;;;;;;5074276;28;20032;-91
2022/07/16 08:36:33;;;;;;;1999.90;999.90;;;21.10;41.70;;;;;;5093909;28;20563;-83
2022/07/16 08:38:58;;;;;;;1999.90;999.90;;;21.10;45.10;;;;;;5092576;28;20024;-91
2022/07/16 08:41:25;;;;;;;1999.90;999.90;;;21.00;41.40;;;;;;5074133;28;20101;-83
2022/07/16 08:43:51;;;;;;;1999.90;999.90;;;21.40;43.30;;;;;;5077853;28;20034;-84
2022/07/16 08:46:21;;;;;;;1999.90;999.90;;;21.90;40.70;;;;;;5102141;28;20019;-83
2022/07/16 08:48:48;;;;;;;1999.90;999.90;;;21.70;41.70;;;;;;5094141;28;20031;-84
2022/07/16 08:51:20;;;;;;;1999.90;999.90;;;21.70;39.70;;;;;;5085287;28;20063;-85
2022/07/16 08:53:47;;;;;;;1999.90;999.90;;;21.90;40.50;;;;;;5087562;28;20032;-83
2022/07/16 08:56:12;;;;;;;1999.90;999.90;;;22.00;38.40;;;;;;5080369;28;20417;-80
2022/07/16 08:58:39;;;;;;;1274.88;578.92;;;22.20;43.20;;;;;;5080797;28;20566;-82
2022/07/16 09:01:04;;;;;;;1664.93;804.03;;;22.10;42.80;;;;;;5095400;28;20035;-84
2022/07/16 09:03:30;;;;;;;1564.30;768.13;;;22.10;40.90;;;;;;5078063;28;20024;-82
2022/07/16 09:05:56;;;;;;;777.78;247.05;;;22.10;38.90;;;;;;5094388;28;20359;-83
2022/07/16 09:08:22;;;;;;;1999.90;999.90;;;22.20;41.50;;;;;;5082925;28;20024;-83
2022/07/16 09:10:47;;;;;;;975.45;298.58;;;22.30;35.50;;;;;;5064773;28;20024;-82
2022/07/16 09:13:13;;;;;;;1696.75;806.83;;;22.60;43.00;;;;;;5063122;28;20483;-85
2022/07/16 09:15:41;;;;;;;1999.90;999.90;;;22.80;41.40;;;;;;5065093;28;20033;-82
2022/07/16 09:18:11;;;;;;;1999.90;999.90;;;22.80;39.20;;;;;;5064788;28;20035;-84
2022/07/16 09:21:00;;;;;;;1999.90;999.90;;;23.30;37.30;;;;;;5074542;28;20035;-84
2022/07/16 09:23:38;;;;;;;1999.90;999.90;;;22.70;35.20;;;;;;5071063;28;20031;-86
2022/07/16 09:26:13;;;;;;;1657.90;792.65;;;23.00;35.80;;;;;;5068495;28;20024;-82
2022/07/16 09:28:44;;;;;;;1174.35;540.83;;;23.10;39.60;;;;;;5098188;28;20118;-83
2022/07/16 09:31:31;;;;;;;1185.68;560.95;;;23.40;35.10;;;;;;5081999;28;20067;-84
2022/07/16 09:34:01;;;;;;;1892.75;669.92;;;23.00;33.50;;;;;;5079379;28;20048;-84
2022/07/16 09:36:27;;;;;;;1496.85;557.70;;;23.20;34.40;;;;;;5084954;28;20119;-84
2022/07/16 09:38:52;;;;;;;1999.90;999.90;;;23.50;32.60;;;;;;5063202;28;20123;-85
2022/07/16 09:41:19;;;;;;;1212.70;318.77;;;23.60;37.90;;;;;;5077239;28;20019;-84
2022/07/16 09:43:45;;;;;;;1692.68;796.83;;;24.00;38.20;;;;;;5075097;28;20521;-84
2022/07/16 09:46:16;;;;;;;1076.43;247.93;;;24.10;36.00;;;;;;5086730;28;20695;-84
2022/07/16 09:48:44;;;;;;;1469.00;394.60;;;24.40;34.10;;;;;;5073353;28;20035;-83
2022/07/16 09:51:20;;;;;;;740.38;237.75;;;24.30;34.10;;;;;;5070308;28;20035;-83
2022/07/16 09:53:47;;;;;;;1999.90;999.90;;;24.60;33.20;;;;;;5073636;28;20058;-84
2022/07/16 09:56:16;;;;;;;961.05;332.90;;;24.80;35.70;;;;;;5077679;28;20151;-84
2022/07/16 09:58:48;;;;;;;1999.90;999.90;;;24.40;34.90;;;;;;5078779;28;20032;-83
2022/07/16 10:01:16;;;;;;;1725.13;819.83;;;24.60;29.80;;;;;;5087728;28;20060;-82
2022/07/16 10:03:42;;;;;;;1173.50;414.85;;;24.40;29.70;;;;;;5078527;28;20034;-82
2022/07/16 10:06:08;;;;;;;1694.75;811.80;;;24.50;30.70;;;;;;5079970;28;20024;-82
2022/07/16 10:08:34;;;;;;;1505.97;646.95;;;24.80;27.50;;;;;;5094764;28;20521;-82
2022/07/16 10:11:00;;;;;;;1538.47;759.20;;;24.80;25.10;;;;;;5082115;28;20044;-82
2022/07/16 10:13:28;;;;;;;1693.78;804.75;;;24.70;28.30;;;;;;5069127;28;20593;-82
2022/07/16 10:15:54;;;;;;;1999.90;999.90;;;24.80;27.20;;;;;;5096736;28;20487;-82
2022/07/16 10:18:33;;;;;;;1999.90;999.90;;;24.90;32.90;;;;;;5082898;28;20032;-82
2022/07/16 10:21:15;;;;;;;1999.90;999.90;;;25.30;30.10;;;;;;5084423;28;20028;-82
2022/07/16 10:24:13;;;;;;;1999.90;999.90;;;25.80;28.90;;;;;;5090848;28;20152;-81
2022/07/16 10:26:39;;;;;;;1999.90;999.90;;;25.50;28.50;;;;;;5104123;28;20566;-81
2022/07/16 10:29:05;;;;;;;1999.90;999.90;;;25.70;32.00;;;;;;5096500;28;20032;-81
2022/07/16 10:31:32;;;;;;;1831.85;891.45;;;25.80;30.60;;;;;;5072793;28;20637;-81
2022/07/16 10:34:13;;;;;;;1999.90;847.92;;;25.70;30.70;;;;;;5100652;28;20020;-82
2022/07/16 10:36:52;;;;;;;1999.90;815.30;;;26.30;28.20;;;;;;5092141;28;20098;-82
2022/07/16 10:39:19;;;;;;;1999.90;970.22;;;25.60;30.50;;;;;;5076633;28;20028;-81
2022/07/16 10:41:51;;;;;;;1999.90;999.90;;;25.90;29.80;;;;;;5093887;28;20031;-83
2022/07/16 10:44:18;;;;;;;1999.90;752.28;;;25.90;33.60;;;;;;5052907;28;20089;-91
2022/07/16 10:46:54;;;;;;;1999.90;994.00;;;25.80;28.20;;;;;;5073020;28;20487;-82
2022/07/16 10:49:21;;;;;;;1999.90;999.90;;;25.60;27.20;;;;;;5075422;28;20487;-82
2022/07/16 10:52:03;;;;;;;1999.90;999.90;;;25.60;27.10;;;;;;5078997;28;20050;-92
2022/07/16 10:54:35;;;;;;;1999.90;999.90;;;26.00;28.00;;;;;;5091628;28;20020;-89
2022/07/16 10:57:07;;;;;;;1999.90;999.90;;;25.40;26.30;;;;;;5065625;28;20024;-87
2022/07/16 10:59:36;;;;;;;1999.90;999.90;;;25.80;27.50;;;;;;5097529;28;20024;-89
2022/07/16 11:02:05;;;;;;;1999.90;999.90;;;26.10;28.70;;;;;;5080255;28;20142;-93
2022/07/16 11:04:41;;;;;;;1999.90;999.90;;;27.00;25.60;;;;;;5065852;28;20745;-88
2022/07/16 11:07:10;;;;;;;1999.90;999.90;;;27.50;25.20;;;;;;5087581;28;20032;-85
2022/07/16 11:09:39;;;;;;;1999.90;999.90;;;28.10;26.70;;;;;;5052856;28;20240;-84
2022/07/16 11:12:16;;;;;;;1999.90;999.90;;;28.00;23.30;;;;;;5065973;28;20035;-84
2022/07/16 11:14:45;;;;;;;1812.10;794.28;;;28.30;22.40;;;;;;5072447;28;20060;-83
2022/07/16 11:17:11;;;;;;;1999.90;453.95;;;28.50;23.00;;;;;;5091240;28;20020;-83
2022/07/16 11:19:42;;;;;;;1999.90;529.50;;;28.40;23.50;;;;;;5097183;28;20028;-83
2022/07/16 11:22:09;;;;;;;1999.90;653.00;;;29.50;23.70;;;;;;5056195;28;20081;-84
2022/07/16 11:24:35;;;;;;;1999.90;384.27;;;29.50;22.40;;;;;;5070742;28;20039;-84
2022/07/16 11:27:02;;;;;;;1999.90;991.35;;;29.50;21.40;;;;;;5097706;28;20028;-85
2022/07/16 11:29:29;;;;;;;1999.90;978.35;;;29.20;23.80;;;;;;5077328;28;20172;-84
2022/07/16 11:31:57;;;;;;;1999.90;999.90;;;29.90;22.70;;;;;;5072302;28;20139;-83
2022/07/16 11:34:22;;;;;;;1999.90;977.92;;;30.50;23.80;;;;;;5097617;28;20023;-84
2022/07/16 11:36:53;;;;;;;1999.90;999.90;;;29.70;21.80;;;;;;5081825;28;20367;-86
2022/07/16 11:39:24;;;;;;;1999.90;999.90;;;30.00;22.40;;;;;;5080462;28;20023;-84
2022/07/16 11:41:52;;;;;;;1999.90;999.90;;;30.00;21.80;;;;;;5067431;28;20032;-83
2022/07/16 11:44:19;;;;;;;1999.90;999.90;;;30.20;23.00;;;;;;5092019;28;20074;-84
2022/07/16 11:46:50;;;;;;;1999.90;999.90;;;31.20;20.20;;;;;;5097228;28;20035;-85
2022/07/16 11:49:32;;;;;;;1999.90;999.90;;;31.00;19.70;;;;;;5085093;28;20020;-84
2022/07/16 11:52:04;;;;;;;1999.90;999.90;;;30.60;20.10;;;;;;5066606;28;20030;-83
2022/07/16 11:54:34;;;;;;;1999.90;678.80;;;30.50;19.90;;;;;;5084680;28;20015;-87
2022/07/16 11:57:00;;;;;;;1999.90;999.90;;;30.10;20.20;;;;;;5103646;28;20024;-84
2022/07/16 11:59:31;;;;;;;1999.90;999.90;;;29.60;21.90;;;;;;5080978;28;20020;-84
2022/07/16 12:02:09;;;;;;;1999.90;999.90;;;31.40;20.40;;;;;;5077959;28;20085;-83
2022/07/16 12:04:41;;;;;;;1999.90;999.90;;;30.70;19.10;;;;;;5090622;28;20033;-84